Time;durP1;ratioP1;P1;durP2;ratioP2;P2;SDS_P1;SDS_P2;PMS_P1;PMS_P2;Temp;Humidity;BMP_temperature;BMP_pressure;BME280_temperature;BME280_humidity;BME280_pressure;Samples;Min_cycle;Max_cycle;Signal;HPM_P1;HPM_P2
2023/04/25 00:01:14;;;;;;;;;;;;;;;7.77;68.61;98009.69;5006017;28;20011;-79
2023/04/25 00:03:39;;;;;;;;;;;;;;;7.83;68.70;98011.31;5028360;28;19921;-79
2023/04/25 00:06:06;;;;;;;;;;;;;;;7.02;70.85;98006.94;5019655;28;20339;-80
2023/04/25 00:08:31;;;;;;;;;;;;;;;7.62;69.02;98014.03;5029561;28;19959;-80
2023/04/25 00:10:57;;;;;;;;;;;;;;;7.87;67.92;98015.09;5023934;28;19917;-80
2023/04/25 00:13:22;;;;;;;;;;;;;;;7.84;68.14;98007.59;5024641;28;20311;-79
2023/04/25 00:15:48;;;;;;;;;;;;;;;7.48;68.97;98011.75;5004935;28;20011;-80
2023/04/25 00:18:13;;;;;;;;;;;;;;;7.83;68.81;98010.50;5023057;28;19917;-79
2023/04/25 00:20:38;;;;;;;;;;;;;;;7.77;68.35;98012.34;5014583;28;21358;-79
2023/04/25 00:23:04;;;;;;;;;;;;;;;7.61;69.93;98010.56;5026683;28;19927;-79
2023/04/25 00:25:30;;;;;;;;;;;;;;;7.55;68.90;98004.41;5032933;28;19925;-79
2023/04/25 00:27:55;;;;;;;;;;;;;;;7.85;68.93;98000.44;5029568;28;19932;-79
2023/04/25 00:30:20;;;;;;;;;;;;;;;7.62;67.74;97998.09;5014612;28;19921;-79
2023/04/25 00:32:45;;;;;;;;;;;;;;;7.93;67.88;98008.75;5030970;28;19931;-79
2023/04/25 00:35:11;;;;;;;;;;;;;;;7.83;68.50;98006.00;5029284;28;19960;-79
2023/04/25 00:37:36;;;;;;;;;;;;;;;7.89;68.32;98002.34;5029895;28;19948;-79
2023/04/25 00:40:02;;;;;;;;;;;;;;;7.92;68.48;98006.34;5032625;28;19925;-79
2023/04/25 00:42:28;;;;;;;;;;;;;;;7.65;68.87;98000.22;5032426;28;19991;-80
2023/04/25 00:44:53;;;;;;;;;;;;;;;7.87;68.42;97995.69;5029399;28;19917;-80
2023/04/25 00:47:19;;;;;;;;;;;;;;;7.80;68.16;97997.75;5026257;28;19972;-80
2023/04/25 00:49:44;;;;;;;;;;;;;;;7.83;67.81;98010.50;5031932;28;19932;-80
2023/04/25 00:52:09;;;;;;;;;;;;;;;7.79;68.16;98002.25;5029642;28;20209;-79
2023/04/25 00:54:35;;;;;;;;;;;;;;;7.81;68.05;97999.34;5028513;28;19921;-80
2023/04/25 00:57:01;;;;;;;;;;;;;;;7.83;68.58;97983.94;5024526;28;20262;-79
2023/04/25 00:59:27;;;;;;;;;;;;;;;7.74;68.31;97991.56;5025901;28;19921;-80
2023/04/25 01:01:53;;;;;;;;;;;;;;;7.77;69.14;97992.94;5023266;28;19921;-80
2023/04/25 01:04:18;;;;;;;;;;;;;;;7.76;68.12;97993.97;5030474;28;19921;-79
2023/04/25 01:06:43;;;;;;;;;;;;;;;7.72;69.31;97982.25;5026539;28;19951;-79
2023/04/25 01:09:09;;;;;;;;;;;;;;;7.67;69.14;97980.34;5009292;28;19921;-79
2023/04/25 01:11:34;;;;;;;;;;;;;;;7.41;69.53;97973.16;5019148;28;20113;-79
2023/04/25 01:14:00;;;;;;;;;;;;;;;7.58;69.39;97974.69;5025930;28;19917;-79
2023/04/25 01:16:26;;;;;;;;;;;;;;;7.33;69.10;97976.28;5032383;28;20373;-79
2023/04/25 01:18:52;;;;;;;;;;;;;;;7.44;69.89;97985.97;5027366;28;20412;-79
2023/04/25 01:21:17;;;;;;;;;;;;;;;7.67;69.06;97995.47;5028154;28;20012;-79
2023/04/25 01:23:42;;;;;;;;;;;;;;;7.67;69.24;97992.81;5029157;28;19925;-79
2023/04/25 01:26:09;;;;;;;;;;;;;;;7.49;70.14;97975.41;5028250;28;19921;-79
2023/04/25 01:28:34;;;;;;;;;;;;;;;7.32;69.56;97975.47;5025336;28;19933;-80
2023/04/25 01:31:00;;;;;;;;;;;;;;;7.37;70.02;97972.06;5021276;28;20009;-79
2023/04/25 01:33:25;;;;;;;;;;;;;;;7.24;70.31;97972.44;5028230;28;20270;-80
2023/04/25 01:35:51;;;;;;;;;;;;;;;7.36;70.15;97981.09;5027137;28;20376;-79
2023/04/25 01:38:16;;;;;;;;;;;;;;;7.48;69.69;97982.56;5027162;28;19925;-80
2023/04/25 01:40:42;;;;;;;;;;;;;;;6.98;69.91;97979.31;5010857;28;19925;-79
2023/04/25 01:43:10;;;;;;;;;;;;;;;7.41;69.89;97978.47;5022762;28;20468;-79
2023/04/25 01:45:36;;;;;;;;;;;;;;;7.25;69.83;97974.06;5031960;28;20066;-79
2023/04/25 01:48:02;;;;;;;;;;;;;;;7.33;70.02;97971.78;5031170;28;20015;-79
2023/04/25 01:50:27;;;;;;;;;;;;;;;7.41;69.21;97973.97;5024055;28;19990;-79
2023/04/25 01:52:52;;;;;;;;;;;;;;;7.26;69.74;97965.84;5025597;28;19926;-79
2023/04/25 01:55:17;;;;;;;;;;;;;;;7.15;70.23;97974.75;5028209;28;19925;-79
2023/04/25 01:57:43;;;;;;;;;;;;;;;7.16;70.08;97968.41;5024412;28;19921;-79
2023/04/25 02:00:09;;;;;;;;;;;;;;;7.17;70.68;97970.00;5023387;28;19922;-79
2023/04/25 02:02:34;;;;;;;;;;;;;;;7.02;71.38;97963.69;5025820;28;19917;-79
2023/04/25 02:05:00;;;;;;;;;;;;;;;7.12;71.57;97961.19;5024346;28;19944;-79
2023/04/25 02:07:26;;;;;;;;;;;;;;;7.23;70.68;97955.72;5021756;28;19932;-79
2023/04/25 02:09:51;;;;;;;;;;;;;;;7.06;71.09;97962.16;5022748;28;19924;-79
2023/04/25 02:12:16;;;;;;;;;;;;;;;6.99;71.12;97964.22;5023401;28;19929;-79
2023/04/25 02:14:41;;;;;;;;;;;;;;;7.04;71.09;97961.59;5007508;28;20308;-79
2023/04/25 02:17:07;;;;;;;;;;;;;;;7.17;71.02;97959.38;5023787;28;19925;-79
2023/04/25 02:19:32;;;;;;;;;;;;;;;7.18;70.06;97961.00;5022920;28;19925;-79
2023/04/25 02:21:58;;;;;;;;;;;;;;;7.11;71.45;97964.88;5030053;28;19917;-79
2023/04/25 02:24:23;;;;;;;;;;;;;;;7.05;70.62;97955.25;5026675;28;19960;-79
2023/04/25 02:26:49;;;;;;;;;;;;;;;6.97;71.51;97950.41;5023446;28;19940;-79
2023/04/25 02:29:15;;;;;;;;;;;;;;;6.92;71.79;97950.31;5019845;28;20262;-79
2023/04/25 02:31:40;;;;;;;;;;;;;;;7.01;71.06;97951.50;5025196;28;19921;-79
2023/04/25 02:34:05;;;;;;;;;;;;;;;6.89;71.39;97959.56;5023391;28;20388;-79
2023/04/25 02:36:33;;;;;;;;;;;;;;;6.88;71.17;97946.56;5021890;28;19918;-79
2023/04/25 02:39:00;;;;;;;;;;;;;;;6.81;71.14;97949.41;5029107;28;19924;-79
2023/04/25 02:41:25;;;;;;;;;;;;;;;6.97;70.58;97943.22;5002784;28;19932;-79
2023/04/25 02:43:50;;;;;;;;;;;;;;;6.84;70.73;97932.19;5020940;28;19921;-79
2023/04/25 02:46:15;;;;;;;;;;;;;;;6.89;71.26;97938.34;5027285;28;20396;-79
2023/04/25 02:48:41;;;;;;;;;;;;;;;6.90;71.70;97945.28;5023809;28;20364;-79
2023/04/25 02:51:06;;;;;;;;;;;;;;;6.94;70.91;97945.56;5027666;28;19917;-79
2023/04/25 02:53:31;;;;;;;;;;;;;;;7.00;70.55;97942.72;5018608;28;20044;-79
2023/04/25 02:55:58;;;;;;;;;;;;;;;6.96;70.83;97938.16;5022675;28;19928;-79
2023/04/25 02:58:23;;;;;;;;;;;;;;;6.72;71.92;97946.38;5021252;28;19917;-79
2023/04/25 03:00:48;;;;;;;;;;;;;;;6.84;71.55;97946.22;5025593;28;19917;-79
2023/04/25 03:03:17;;;;;;;;;;;;;;;6.74;72.24;97952.22;5024531;28;20292;-79
2023/04/25 03:05:42;;;;;;;;;;;;;;;6.80;71.66;97947.78;5002184;28;19921;-79
2023/04/25 03:08:07;;;;;;;;;;;;;;;6.95;71.74;97957.75;5031568;28;19933;-80
2023/04/25 03:10:33;;;;;;;;;;;;;;;6.96;70.77;97968.16;5022139;28;19928;-79
2023/04/25 03:12:58;;;;;;;;;;;;;;;6.98;70.84;97975.84;5022814;28;19926;-79
2023/04/25 03:15:23;;;;;;;;;;;;;;;6.90;71.25;97971.78;5010494;28;20188;-79
2023/04/25 03:17:48;;;;;;;;;;;;;;;6.65;71.91;97972.25;5014212;28;19920;-80
2023/04/25 03:20:14;;;;;;;;;;;;;;;6.90;71.26;97969.16;5007513;28;19921;-79
2023/04/25 03:22:39;;;;;;;;;;;;;;;7.01;71.37;97968.19;5036169;28;20063;-80
2023/04/25 03:25:05;;;;;;;;;;;;;;;6.93;71.33;97975.78;5022488;28;19940;-79
2023/04/25 03:27:30;;;;;;;;;;;;;;;7.03;71.26;97970.63;5021259;28;19929;-79
2023/04/25 03:29:55;;;;;;;;;;;;;;;6.69;72.47;97970.72;5019626;28;19921;-79
2023/04/25 03:32:21;;;;;;;;;;;;;;;6.88;71.51;97973.09;5007930;28;20437;-79
2023/04/25 03:34:46;;;;;;;;;;;;;;;6.86;71.54;97973.31;5022924;28;20472;-79
2023/04/25 03:37:11;;;;;;;;;;;;;;;6.87;72.92;97980.22;5028785;28;19940;-79
2023/04/25 03:39:37;;;;;;;;;;;;;;;6.91;72.92;97981.34;5009672;28;19932;-80
2023/04/25 03:42:02;;;;;;;;;;;;;;;7.01;72.34;97983.34;5028530;28;19927;-79
2023/04/25 03:44:28;;;;;;;;;;;;;;;7.09;71.69;97982.88;5028500;28;20024;-79
2023/04/25 03:46:53;;;;;;;;;;;;;;;6.86;73.16;97986.56;5027578;28;20395;-80
2023/04/25 03:49:18;;;;;;;;;;;;;;;6.81;73.01;97994.47;5009631;28;19951;-80
2023/04/25 03:51:43;;;;;;;;;;;;;;;7.04;72.28;97986.28;5032677;28;19947;-79
2023/04/25 03:54:09;;;;;;;;;;;;;;;7.07;72.51;97987.66;5029763;28;19925;-80
2023/04/25 03:56:34;;;;;;;;;;;;;;;7.05;72.98;98000.34;5031514;28;19921;-79
2023/04/25 03:58:59;;;;;;;;;;;;;;;6.91;72.96;98004.41;5013842;28;20007;-80
2023/04/25 04:01:25;;;;;;;;;;;;;;;7.22;72.38;97998.44;5027494;28;20392;-80
2023/04/25 04:03:50;;;;;;;;;;;;;;;7.11;72.44;98002.81;5022143;28;19925;-79
2023/04/25 04:06:16;;;;;;;;;;;;;;;7.25;72.64;98004.03;5029999;28;19916;-79
2023/04/25 04:08:41;;;;;;;;;;;;;;;6.98;73.43;98000.53;5026854;28;20297;-79
2023/04/25 04:11:06;;;;;;;;;;;;;;;6.67;74.94;98011.78;5023939;28;20396;-79
2023/04/25 04:13:32;;;;;;;;;;;;;;;7.08;73.36;98011.25;5008608;28;19929;-79
2023/04/25 04:15:57;;;;;;;;;;;;;;;7.00;74.12;98006.41;5020666;28;19929;-79
2023/04/25 04:18:23;;;;;;;;;;;;;;;7.18;73.20;98016.72;5017472;28;19916;-80
2023/04/25 04:20:48;;;;;;;;;;;;;;;7.05;73.74;98016.28;5026207;28;19977;-79
2023/04/25 04:23:13;;;;;;;;;;;;;;;6.88;74.44;98029.56;5026487;28;20042;-79
2023/04/25 04:25:39;;;;;;;;;;;;;;;6.89;74.71;98022.41;5008639;28;20011;-79
2023/04/25 04:28:05;;;;;;;;;;;;;;;6.97;74.40;98019.38;5023921;28;19921;-80
2023/04/25 04:30:31;;;;;;;;;;;;;;;7.07;73.88;98020.28;5006433;28;19921;-79
2023/04/25 04:32:56;;;;;;;;;;;;;;;7.30;73.37;98024.53;5023344;28;20265;-80
2023/04/25 04:35:23;;;;;;;;;;;;;;;7.30;73.36;98020.03;5026655;28;19920;-79
2023/04/25 04:37:48;;;;;;;;;;;;;;;7.25;73.35;98027.94;5025743;28;19932;-80
2023/04/25 04:40:17;;;;;;;;;;;;;;;7.08;74.12;98029.03;5025148;28;19925;-80
2023/04/25 04:42:43;;;;;;;;;;;;;;;7.17;74.02;98027.56;5023352;28;19956;-80
2023/04/25 04:45:08;;;;;;;;;;;;;;;7.18;74.16;98031.84;5018023;28;19976;-80
2023/04/25 04:47:36;;;;;;;;;;;;;;;7.10;74.53;98029.63;5032830;28;19936;-79
2023/04/25 04:50:01;;;;;;;;;;;;;;;7.23;73.85;98030.03;5015848;28;19928;-79
2023/04/25 04:52:27;;;;;;;;;;;;;;;7.20;73.49;98038.50;5021580;28;20284;-79
2023/04/25 04:54:52;;;;;;;;;;;;;;;7.27;73.38;98036.44;5021017;28;19925;-79
2023/04/25 04:57:17;;;;;;;;;;;;;;;7.35;72.71;98044.00;5026104;28;19936;-79
2023/04/25 04:59:42;;;;;;;;;;;;;;;7.28;74.24;98046.03;5024239;28;19960;-79
2023/04/25 05:02:08;;;;;;;;;;;;;;;7.37;73.07;98043.75;5024613;28;20367;-79
2023/04/25 05:04:33;;;;;;;;;;;;;;;7.40;73.27;98045.91;5006891;28;19967;-79
2023/04/25 05:06:58;;;;;;;;;;;;;;;7.23;74.87;98055.78;5005923;28;19971;-79
2023/04/25 05:09:27;;;;;;;;;;;;;;;7.41;74.11;98052.81;5020292;28;20415;-79
2023/04/25 05:11:52;;;;;;;;;;;;;;;7.37;73.42;98055.16;5019869;28;19922;-79
2023/04/25 05:14:17;;;;;;;;;;;;;;;7.27;74.49;98060.34;5026808;28;19929;-79
2023/04/25 05:16:43;;;;;;;;;;;;;;;7.35;74.19;98062.56;5024790;28;20059;-79
2023/04/25 05:19:08;;;;;;;;;;;;;;;7.30;75.05;98070.47;5025806;28;20277;-79
2023/04/25 05:21:34;;;;;;;;;;;;;;;7.35;74.34;98062.56;5024985;28;19925;-79
2023/04/25 05:24:00;;;;;;;;;;;;;;;7.23;74.80;98061.88;5027176;28;19967;-79
2023/04/25 05:26:25;;;;;;;;;;;;;;;7.10;76.10;98067.53;5025809;28;20357;-79
2023/04/25 05:28:50;;;;;;;;;;;;;;;7.06;75.94;98070.94;5024121;28;19929;-79
2023/04/25 05:31:16;;;;;;;;;;;;;;;7.12;75.82;98069.97;5002924;28;19929;-79
2023/04/25 05:33:41;;;;;;;;;;;;;;;7.31;75.05;98079.25;5018393;28;19921;-79
2023/04/25 05:36:07;;;;;;;;;;;;;;;7.40;75.51;98083.84;5016964;28;20436;-79
2023/04/25 05:38:32;;;;;;;;;;;;;;;7.34;75.00;98089.34;5006216;28;19964;-79
2023/04/25 05:40:57;;;;;;;;;;;;;;;7.25;75.53;98096.94;5019618;28;19925;-79
2023/04/25 05:43:23;;;;;;;;;;;;;;;7.02;76.43;98097.16;5024434;28;19926;-79
2023/04/25 05:45:48;;;;;;;;;;;;;;;7.02;76.53;98105.13;5027535;28;19917;-79
2023/04/25 05:48:14;;;;;;;;;;;;;;;6.72;77.58;98108.13;5018205;28;19925;-79
2023/04/25 05:50:39;;;;;;;;;;;;;;;6.62;78.36;98104.47;5024090;28;20338;-79
2023/04/25 05:53:05;;;;;;;;;;;;;;;7.03;77.69;98117.34;5032745;28;19925;-79
2023/04/25 05:55:31;;;;;;;;;;;;;;;6.51;79.61;98122.06;5014346;28;19956;-79
2023/04/25 05:57:56;;;;;;;;;;;;;;;6.80;79.10;98120.16;5016545;28;19926;-79
2023/04/25 06:00:22;;;;;;;;;;;;;;;7.11;77.28;98127.53;5016679;28;19929;-79
2023/04/25 06:02:47;;;;;;;;;;;;;;;6.40;80.54;98135.41;5015151;28;19921;-79
2023/04/25 06:05:12;;;;;;;;;;;;;;;6.54;80.85;98140.16;5017084;28;19925;-79
2023/04/25 06:07:38;;;;;;;;;;;;;;;6.75;79.98;98136.78;5011360;28;19929;-79
2023/04/25 06:10:06;;;;;;;;;;;;;;;6.87;78.67;98141.22;5016620;28;19917;-79
2023/04/25 06:12:31;;;;;;;;;;;;;;;7.07;78.55;98136.22;5018816;28;19924;-79
2023/04/25 06:14:56;;;;;;;;;;;;;;;7.11;78.06;98140.00;5015548;28;20722;-79
2023/04/25 06:17:22;;;;;;;;;;;;;;;7.24;77.99;98137.81;5019963;28;19933;-79
2023/04/25 06:19:47;;;;;;;;;;;;;;;7.55;76.12;98144.34;5029863;28;19917;-79
2023/04/25 06:22:12;;;;;;;;;;;;;;;7.34;77.40;98145.91;5021684;28;19925;-79
2023/04/25 06:24:37;;;;;;;;;;;;;;;7.34;76.92;98145.09;5024441;28;19917;-79
2023/04/25 06:27:03;;;;;;;;;;;;;;;7.47;75.87;98144.75;5028203;28;19921;-79
2023/04/25 06:29:28;;;;;;;;;;;;;;;7.19;77.84;98143.03;5018111;28;19928;-79
2023/04/25 06:31:53;;;;;;;;;;;;;;;7.10;79.19;98151.66;5021945;28;19921;-79
2023/04/25 06:34:18;;;;;;;;;;;;;;;7.33;77.39;98152.28;5026901;28;20423;-79
2023/04/25 06:36:44;;;;;;;;;;;;;;;7.34;77.26;98147.75;5013347;28;19925;-79
2023/04/25 06:39:10;;;;;;;;;;;;;;;7.39;77.50;98145.97;5003809;28;21413;-79
2023/04/25 06:41:35;;;;;;;;;;;;;;;7.43;77.50;98149.75;5019688;28;19921;-79
2023/04/25 06:44:00;;;;;;;;;;;;;;;7.26;79.41;98156.13;5015751;28;19925;-79
2023/04/25 06:46:26;;;;;;;;;;;;;;;7.48;78.62;98149.00;5040402;28;19932;-79
2023/04/25 06:48:51;;;;;;;;;;;;;;;7.35;78.51;98147.53;5022090;28;19964;-79
2023/04/25 06:51:16;;;;;;;;;;;;;;;7.36;79.04;98151.75;5017841;28;20011;-79
2023/04/25 06:53:42;;;;;;;;;;;;;;;7.64;76.84;98150.81;5042613;28;19971;-79
2023/04/25 06:56:07;;;;;;;;;;;;;;;7.55;77.52;98155.75;5018237;28;19932;-79
2023/04/25 06:58:32;;;;;;;;;;;;;;;7.65;77.88;98162.22;5039414;28;19925;-79
2023/04/25 07:00:57;;;;;;;;;;;;;;;7.40;78.82;98163.50;5041826;28;19975;-79
2023/04/25 07:03:23;;;;;;;;;;;;;;;7.60;78.03;98162.19;5041470;28;19925;-79
2023/04/25 07:05:49;;;;;;;;;;;;;;;7.42;78.50;98161.44;5042711;28;19927;-79
2023/04/25 07:08:14;;;;;;;;;;;;;;;7.27;79.34;98171.03;5042206;28;20038;-80
2023/04/25 07:10:40;;;;;;;;;;;;;;;6.51;81.45;98180.41;5032614;28;19967;-80
2023/04/25 07:13:05;;;;;;;;;;;;;;;6.31;83.30;98187.97;5037735;28;19931;-79
2023/04/25 07:15:30;;;;;;;;;;;;;;;5.64;83.94;98191.38;5036738;28;20396;-78
2023/04/25 07:17:55;;;;;;;;;;;;;;;5.78;84.22;98190.09;5041262;28;20438;-78
2023/04/25 07:20:21;;;;;;;;;;;;;;;5.55;85.06;98201.50;5036589;28;20273;-78
2023/04/25 07:22:46;;;;;;;;;;;;;;;5.63;84.95;98193.25;5019615;28;19968;-78
2023/04/25 07:25:11;;;;;;;;;;;;;;;6.63;82.96;98196.25;5039358;28;19917;-78
2023/04/25 07:27:37;;;;;;;;;;;;;;;6.27;81.81;98200.09;5024120;28;19921;-78
2023/04/25 07:30:03;;;;;;;;;;;;;;;5.90;82.47;98194.34;5041092;28;19944;-78
2023/04/25 07:32:28;;;;;;;;;;;;;;;6.54;83.40;98200.34;5039321;28;19928;-78
2023/04/25 07:34:54;;;;;;;;;;;;;;;7.27;80.26;98202.88;5043693;28;19913;-78
2023/04/25 07:37:19;;;;;;;;;;;;;;;7.79;77.40;98217.44;5038757;28;19925;-79
2023/04/25 07:39:46;;;;;;;;;;;;;;;7.17;78.42;98215.97;5039183;28;20393;-79
2023/04/25 07:42:11;;;;;;;;;;;;;;;7.54;77.92;98212.56;5041640;28;20372;-78
2023/04/25 07:44:40;;;;;;;;;;;;;;;6.99;78.74;98214.34;5039087;28;19917;-79
2023/04/25 07:47:09;;;;;;;;;;;;;;;7.67;77.13;98221.22;5034381;28;19928;-79
2023/04/25 07:49:37;;;;;;;;;;;;;;;7.78;77.17;98220.31;5055681;28;19917;-79
2023/04/25 07:52:03;;;;;;;;;;;;;;;8.02;76.32;98216.38;5037762;28;19924;-79
2023/04/25 07:54:29;;;;;;;;;;;;;;;7.43;79.12;98225.94;5047282;28;19935;-79
2023/04/25 07:56:54;;;;;;;;;;;;;;;7.81;77.52;98220.63;5036825;28;19923;-79
2023/04/25 07:59:20;;;;;;;;;;;;;;;7.74;78.62;98233.28;5037223;28;19916;-79
2023/04/25 08:01:45;;;;;;;;;;;;;;;7.93;77.80;98231.16;5039023;28;19941;-79
2023/04/25 08:04:11;;;;;;;;;;;;;;;7.69;77.83;98232.44;5038828;28;19921;-79
2023/04/25 08:06:36;;;;;;;;;;;;;;;7.85;77.57;98240.34;5038992;28;19920;-79
2023/04/25 08:09:02;;;;;;;;;;;;;;;7.78;77.60;98234.41;5030464;28;19936;-79
2023/04/25 08:11:28;;;;;;;;;;;;;;;7.97;76.71;98241.03;5030123;28;20558;-79
2023/04/25 08:13:53;;;;;;;;;;;;;;;8.49;74.97;98237.97;5022477;28;19921;-80
2023/04/25 08:16:18;;;;;;;;;;;;;;;8.54;74.42;98246.78;5021568;28;20083;-79
2023/04/25 08:18:43;;;;;;;;;;;;;;;8.60;74.82;98253.78;5043681;28;19921;-80
2023/04/25 08:21:11;;;;;;;;;;;;;;;8.23;76.09;98247.47;5036548;28;19956;-80
2023/04/25 08:23:36;;;;;;;;;;;;;;;8.53;74.25;98250.50;5030440;28;20289;-80
2023/04/25 08:26:02;;;;;;;;;;;;;;;8.22;74.78;98249.31;5019660;28;19932;-80
2023/04/25 08:28:27;;;;;;;;;;;;;;;7.91;75.62;98265.94;5040894;28;20384;-80
2023/04/25 08:30:52;;;;;;;;;;;;;;;8.16;75.57;98254.81;5033723;28;19927;-80
2023/04/25 08:33:17;;;;;;;;;;;;;;;8.11;75.13;98265.38;5042174;28;20011;-80
2023/04/25 08:35:44;;;;;;;;;;;;;;;8.40;74.74;98269.50;5031944;28;19920;-80
2023/04/25 08:38:09;;;;;;;;;;;;;;;8.28;73.65;98256.34;5028150;28;19920;-80
2023/04/25 08:40:37;;;;;;;;;;;;;;;8.62;73.92;98261.50;5043331;28;19947;-80
2023/04/25 08:43:03;;;;;;;;;;;;;;;8.81;73.38;98268.91;5043567;28;19916;-80
2023/04/25 08:45:31;;;;;;;;;;;;;;;8.75;73.47;98269.91;5034878;28;19917;-80
2023/04/25 08:47:57;;;;;;;;;;;;;;;8.32;71.87;98265.41;5041320;28;20376;-80
2023/04/25 08:50:22;;;;;;;;;;;;;;;8.50;73.61;98280.25;5043765;28;19920;-80
2023/04/25 08:52:50;;;;;;;;;;;;;;;8.52;72.55;98272.03;5039923;28;20012;-80
2023/04/25 08:55:15;;;;;;;;;;;;;;;8.04;71.68;98278.84;5049979;28;19958;-80
2023/04/25 08:57:45;;;;;;;;;;;;;;;7.90;75.00;98271.50;5053308;28;19924;-80
2023/04/25 09:00:12;;;;;;;;;;;;;;;8.90;72.61;98285.22;5054025;28;20038;-80
2023/04/25 09:02:38;;;;;;;;;;;;;;;8.25;73.22;98283.44;5050197;28;20066;-80
2023/04/25 09:05:04;;;;;;;;;;;;;;;9.05;72.25;98288.81;5034394;28;19917;-80
2023/04/25 09:07:29;;;;;;;;;;;;;;;9.06;71.21;98289.63;5042861;28;19925;-80
2023/04/25 09:09:55;;;;;;;;;;;;;;;9.26;71.26;98294.34;5031141;28;19929;-80
2023/04/25 09:12:20;;;;;;;;;;;;;;;9.12;70.51;98304.59;5041369;28;19956;-80
2023/04/25 09:15:03;;;;;;;;;;;;;;;8.84;69.86;98307.50;5040170;28;20276;-80
2023/04/25 09:17:28;;;;;;;;;;;;;;;8.75;70.80;98309.00;5026020;28;19956;-81
2023/04/25 09:19:54;;;;;;;;;;;;;;;8.74;71.50;98307.38;5040356;28;20089;-80
2023/04/25 09:22:22;;;;;;;;;;;;;;;8.76;70.15;98311.41;5040818;28;19921;-80
2023/04/25 09:24:48;;;;;;;;;;;;;;;8.85;70.71;98311.75;5041893;28;20311;-80
2023/04/25 09:27:18;;;;;;;;;;;;;;;9.01;70.33;98327.66;5032921;28;19928;-80
2023/04/25 09:29:43;;;;;;;;;;;;;;;8.88;70.72;98321.91;5033557;28;19917;-80
2023/04/25 09:32:12;;;;;;;;;;;;;;;8.99;70.27;98332.44;5040028;28;20027;-80
2023/04/25 09:34:42;;;;;;;;;;;;;;;8.72;67.45;98328.91;5036808;28;19923;-80
2023/04/25 09:37:08;;;;;;;;;;;;;;;8.56;67.77;98335.09;5043464;28;19939;-80
2023/04/25 09:39:34;;;;;;;;;;;;;;;8.66;67.30;98329.13;5042869;28;19917;-80
2023/04/25 09:42:00;;;;;;;;;;;;;;;8.37;67.67;98335.66;5043141;28;19921;-80
2023/04/25 09:44:25;;;;;;;;;;;;;;;9.04;68.86;98342.31;5041138;28;19924;-80
2023/04/25 09:46:54;;;;;;;;;;;;;;;8.66;68.91;98347.75;5036935;28;19927;-80
2023/04/25 09:49:22;;;;;;;;;;;;;;;8.64;68.44;98349.84;5023608;28;19932;-80
2023/04/25 09:51:55;;;;;;;;;;;;;;;8.88;68.13;98351.19;5033163;28;19920;-80
2023/04/25 09:54:20;;;;;;;;;;;;;;;8.90;67.30;98351.75;5040249;28;19921;-80
2023/04/25 09:56:47;;;;;;;;;;;;;;;8.64;66.07;98355.97;5028702;28;19928;-80
2023/04/25 09:59:13;;;;;;;;;;;;;;;8.88;67.50;98359.97;5039665;28;20431;-80
2023/04/25 10:01:40;;;;;;;;;;;;;;;8.52;66.27;98360.59;5033248;28;19925;-80
2023/04/25 10:04:06;;;;;;;;;;;;;;;8.63;67.94;98358.84;5040785;28;20016;-80
2023/04/25 10:06:34;;;;;;;;;;;;;;;8.15;64.43;98356.88;5045542;28;19924;-80
2023/04/25 10:09:00;;;;;;;;;;;;;;;8.66;67.60;98375.16;5042863;28;19921;-80
2023/04/25 10:11:26;;;;;;;;;;;;;;;8.79;66.40;98372.13;5031781;28;19943;-80
2023/04/25 10:13:52;;;;;;;;;;;;;;;8.72;67.24;98374.16;5041433;28;20008;-80
2023/04/25 10:16:17;;;;;;;;;;;;;;;8.86;66.94;98378.06;5044450;28;19920;-80
2023/04/25 10:18:42;;;;;;;;;;;;;;;8.84;66.16;98376.69;5040752;28;19925;-80
2023/04/25 10:21:08;;;;;;;;;;;;;;;8.64;66.58;98371.13;5038341;28;20020;-80
2023/04/25 10:23:34;;;;;;;;;;;;;;;8.79;65.68;98377.44;5031384;28;19927;-80
2023/04/25 10:26:00;;;;;;;;;;;;;;;8.34;66.44;98376.88;5032439;28;19964;-80
2023/04/25 10:28:25;;;;;;;;;;;;;;;8.82;66.11;98379.59;5031512;28;20434;-80
2023/04/25 10:30:58;;;;;;;;;;;;;;;8.68;66.38;98383.69;5030271;28;19917;-80
2023/04/25 10:33:33;;;;;;;;;;;;;;;8.71;67.26;98374.41;5031480;28;20039;-80
2023/04/25 10:35:58;;;;;;;;;;;;;;;9.05;65.96;98373.19;5013472;28;20397;-80
2023/04/25 10:38:25;;;;;;;;;;;;;;;9.04;65.60;98379.59;5013426;28;19922;-80
2023/04/25 10:41:02;;;;;;;;;;;;;;;9.33;64.71;98380.94;5012275;28;19914;-80
2023/04/25 10:43:30;;;;;;;;;;;;;;;9.14;65.48;98386.88;5025519;28;19924;-80
2023/04/25 10:45:56;;;;;;;;;;;;;;;8.67;65.02;98392.69;5047238;28;20391;-80
2023/04/25 10:48:25;;;;;;;;;;;;;;;8.76;64.21;98379.78;5035213;28;19926;-80
2023/04/25 10:51:06;;;;;;;;;;;;;;;9.02;64.73;98385.16;5026441;28;19943;-79
2023/04/25 10:53:33;;;;;;;;;;;;;;;8.46;64.66;98396.16;5030051;28;19917;-80
2023/04/25 10:55:58;;;;;;;;;;;;;;;9.00;64.27;98384.59;5027609;28;19928;-80
2023/04/25 10:58:23;;;;;;;;;;;;;;;8.80;61.65;98395.00;5029576;28;20384;-80
2023/04/25 11:00:49;;;;;;;;;;;;;;;8.78;63.55;98399.75;5016205;28;19943;-80
2023/04/25 11:03:16;;;;;;;;;;;;;;;8.88;64.32;98401.75;5032256;28;19917;-79
2023/04/25 11:05:44;;;;;;;;;;;;;;;8.90;63.08;98395.13;5025064;28;19947;-80
2023/04/25 11:08:11;;;;;;;;;;;;;;;8.87;61.63;98400.94;5024120;28;19928;-80
2023/04/25 11:10:36;;;;;;;;;;;;;;;9.09;62.80;98400.16;5028612;28;19917;-80
2023/04/25 11:13:02;;;;;;;;;;;;;;;9.03;63.97;98410.72;5027639;28;20359;-80
2023/04/25 11:15:27;;;;;;;;;;;;;;;9.28;63.25;98402.22;5026609;28;19917;-79
2023/04/25 11:17:53;;;;;;;;;;;;;;;9.33;62.93;98406.75;5028068;28;19921;-79
2023/04/25 11:20:18;;;;;;;;;;;;;;;9.00;59.43;98405.06;5026693;28;19921;-80
2023/04/25 11:22:44;;;;;;;;;;;;;;;9.37;61.60;98399.91;5027319;28;19929;-79
2023/04/25 11:25:11;;;;;;;;;;;;;;;9.02;60.08;98406.44;5024160;28;19960;-79
2023/04/25 11:27:56;;;;;;;;;;;;;;;9.04;58.85;98401.66;5023744;28;20261;-79
2023/04/25 11:30:23;;;;;;;;;;;;;;;9.47;61.52;98414.13;5025666;28;20016;-79
2023/04/25 11:32:49;;;;;;;;;;;;;;;9.18;59.75;98404.75;5016746;28;20275;-80
2023/04/25 11:35:15;;;;;;;;;;;;;;;9.62;61.84;98400.94;5032160;28;19921;-80
2023/04/25 11:37:40;;;;;;;;;;;;;;;9.70;61.34;98397.81;5021503;28;20020;-80
2023/04/25 11:40:06;;;;;;;;;;;;;;;10.01;58.83;98398.84;5012251;28;19925;-80
2023/04/25 11:42:32;;;;;;;;;;;;;;;10.04;60.09;98397.53;5023686;28;20411;-80
2023/04/25 11:44:58;;;;;;;;;;;;;;;9.81;60.36;98390.69;5026554;28;19979;-79
2023/04/25 11:47:30;;;;;;;;;;;;;;;9.72;57.63;98389.56;5025981;28;20008;-79
2023/04/25 11:49:57;;;;;;;;;;;;;;;10.13;61.47;98406.72;5020376;28;19925;-80
2023/04/25 11:52:22;;;;;;;;;;;;;;;9.66;59.30;98401.22;5025673;28;19929;-79
2023/04/25 11:54:47;;;;;;;;;;;;;;;9.54;60.76;98404.06;5019767;28;20343;-79
2023/04/25 11:57:14;;;;;;;;;;;;;;;9.63;60.24;98402.53;5022911;28;19976;-79
2023/04/25 11:59:40;;;;;;;;;;;;;;;9.89;61.58;98408.09;5007573;28;20289;-80
2023/04/25 12:02:06;;;;;;;;;;;;;;;10.02;59.85;98403.16;5019477;28;19932;-80
2023/04/25 12:04:32;;;;;;;;;;;;;;;10.09;58.24;98398.38;5009667;28;19921;-80
2023/04/25 12:06:57;;;;;;;;;;;;;;;10.23;55.77;98401.44;5021031;28;19921;-80
2023/04/25 12:09:32;;;;;;;;;;;;;;;10.46;55.86;98406.41;5016628;28;20416;-80
2023/04/25 12:11:59;;;;;;;;;;;;;;;10.40;57.31;98402.06;5026239;28;19943;-80
2023/04/25 12:14:26;;;;;;;;;;;;;;;10.37;58.43;98414.09;5033331;28;19916;-80
2023/04/25 12:16:52;;;;;;;;;;;;;;;10.45;58.11;98418.13;5028674;28;19921;-80
2023/04/25 12:19:18;;;;;;;;;;;;;;;10.23;58.71;98420.91;5026621;28;19921;-80
2023/04/25 12:21:44;;;;;;;;;;;;;;;10.03;57.68;98423.41;5028173;28;19921;-80
2023/04/25 12:24:13;;;;;;;;;;;;;;;9.82;54.67;98421.63;5031070;28;20008;-79
2023/04/25 12:26:58;;;;;;;;;;;;;;;9.84;58.68;98427.50;5040857;28;19970;-80
2023/04/25 12:29:24;;;;;;;;;;;;;;;9.90;57.28;98439.81;5021378;28;19925;-80
2023/04/25 12:31:51;;;;;;;;;;;;;;;9.83;57.71;98433.88;5028954;28;19940;-80
2023/04/25 12:34:16;;;;;;;;;;;;;;;9.79;55.88;98444.25;5032263;28;19925;-80
2023/04/25 12:36:42;;;;;;;;;;;;;;;9.80;57.20;98437.06;5030966;28;19924;-80
2023/04/25 12:39:07;;;;;;;;;;;;;;;9.34;57.23;98440.34;5010842;28;19972;-80
2023/04/25 12:41:33;;;;;;;;;;;;;;;9.99;58.80;98437.50;5029878;28;19957;-80
2023/04/25 12:43:58;;;;;;;;;;;;;;;10.07;58.51;98443.16;5033533;28;19917;-80
2023/04/25 12:46:24;;;;;;;;;;;;;;;9.86;57.90;98446.72;5031917;28;19928;-80
2023/04/25 12:48:49;;;;;;;;;;;;;;;9.80;57.55;98440.56;5031563;28;20024;-80
2023/04/25 12:51:14;;;;;;;;;;;;;;;9.90;57.76;98444.34;5031543;28;20023;-80